Latest Weather Observations for Point Avoid

IDS60801

Issued at 7:21 am CDT Wednesday 23 January 2019 (issued every 10 minutes, with the page automatically refreshed every 10 minutes)

About weather observations | Map of weather stations | Latest weather observations for SA | Other Formats
Station Details ID: 018230 Name: POINT AVOID Lat: -34.67 Lon: 135.34 Height: 35.0 m
Data from the previous 72 hours. | See also: Recent months at Point Avoid
Date/Time
CDT
Temp
°C
App
Temp
°C
Dew
Point
°C
Rel
Hum
%
Delta-T
°C
Wind Press
QNH
hPa
Press
MSL
hPa
Rain since
9am
mm
Dir  Spd
km/h
Gust
km/h
Spd
kts
Gust
kts
23/07:00am 22.8 19.9 16.1 66 4.1 E 26 33 14 18 1010.3 1010.1 0.0
23/06:30am 21.8 20.3 16.3 71 3.3 ESE 19 24 10 13 1010.5 1010.3 0.0
23/06:00am 22.0 19.3 16.5 71 3.3 E 26 35 14 19 1010.1 1009.9 0.0
23/05:30am 21.4 20.2 16.1 72 3.2 E 17 22 9 12 1010.2 1010.0 0.0
23/05:00am 22.0 19.9 16.3 70 3.5 E 22 30 12 16 1010.2 1010.0 0.0
23/04:30am 22.4 20.0 15.5 65 4.1 E 22 28 12 15 1010.1 1009.9 0.0
23/04:00am 23.1 20.4 15.7 63 4.5 E 24 32 13 17 1009.9 1009.7 0.0
23/03:30am 22.9 20.2 16.7 68 3.8 E 26 39 14 21 1010.1 1009.9 0.0
23/03:00am 20.0 20.1 16.4 80 2.2 ESE 11 17 6 9 1010.7 1010.5 0.0
23/02:30am 20.1 19.0 17.3 84 1.7 SE 19 20 10 11 1010.9 1010.7 0.0
23/02:00am 20.1 19.2 18.2 89 1.2 SE 20 24 11 13 1010.9 1010.7 0.0
23/01:30am 18.6 17.9 18.3 98 0.2 SE 19 22 10 12 1011.2 1011.0 0.0
23/01:00am 18.6 17.8 18.4 99 0.1 SE 20 26 11 14 1011.3 1011.1 0.0
23/12:30am 18.8 17.8 18.8 100 0.0 SE 22 28 12 15 1011.5 1011.3 0.0
23/12:00am 19.1 17.7 18.9 99 0.1 SE 24 32 13 17 1011.7 1011.5 0.0
 
Date/Time
CDT
Temp
°C
App
Temp
°C
Dew
Point
°C
Rel
Hum
%
Delta-T
°C
Wind Press
QNH
hPa
Press
MSL
hPa
Rain since
9am
mm
Dir  Spd
km/h
Gust
km/h
Spd
kts
Gust
kts
22/11:30pm 19.1 17.5 19.1 100 0.0 SE 26 32 14 17 1011.6 1011.4 0.0
22/11:00pm 19.4 17.9 19.4 100 0.0 SE 26 32 14 17 1011.7 1011.5 0.0
22/10:30pm 20.2 18.8 18.9 92 0.8 SE 24 30 13 16 1011.7 1011.5 0.0
22/10:00pm 20.1 18.5 16.1 78 2.4 SSE 19 20 10 11 1011.2 1011.0 0.0
22/09:30pm 20.4 19.3 15.4 73 3.0 SE 15 17 8 9 1010.9 1010.7 0.0
22/09:00pm 20.3 19.3 16.7 80 2.2 SE 17 20 9 11 1010.6 1010.4 0.0
22/08:30pm 21.4 20.1 16.8 75 2.8 SE 19 22 10 12 1010.5 1010.3 0.0
22/08:00pm 22.9 21.4 16.2 66 4.1 SE 19 24 10 13 1010.4 1010.2 0.0
22/07:30pm 23.7 22.3 16.5 64 4.4 SE 19 26 10 14 1010.2 1010.0 0.0
22/07:00pm 24.1 22.7 17.1 65 4.3 SE 20 26 11 14 1010.2 1010.0 0.0
22/06:30pm 24.1 22.8 19.0 73 3.3 SE 24 30 13 16 1010.3 1010.1 0.0
22/06:00pm 23.7 22.5 20.0 80 2.4 SE 26 35 14 19 1010.3 1010.1 0.0
22/05:30pm 24.0 24.1 21.1 84 1.9 SE 22 33 12 18 1010.7 1010.5 0.0
22/05:00pm 24.9 25.6 21.6 82 2.2 SE 20 26 11 14 1010.8 1010.6 0.0
22/04:30pm 24.7 24.7 21.6 83 2.1 SE 24 32 13 17 1010.9 1010.7 0.0
22/04:00pm 24.8 25.0 22.1 85 1.8 SSE 24 28 13 15 1011.2 1011.0 0.0
22/03:30pm 25.6 26.0 21.7 79 2.6 SSE 22 28 12 15 1011.2 1011.0 0.0
22/03:00pm 26.2 26.7 21.2 74 3.3 SE 20 26 11 14 1011.2 1011.0 0.0
22/02:30pm 26.1 26.8 21.5 76 3.1 SSE 20 28 11 15 1011.4 1011.2 0.0
22/02:00pm 25.9 26.1 20.2 71 3.7 SSE 19 24 10 13 1011.4 1011.2 0.0
22/01:30pm 25.9 26.0 20.0 70 3.8 SSE 19 24 10 13 1011.6 1011.4 0.0
22/01:00pm 26.9 27.1 19.3 63 4.9 SSE 17 20 9 11 1011.5 1011.3 0.0
22/12:30pm 27.5 27.8 17.9 55 6.1 S 13 17 7 9 1011.7 1011.5 0.0
22/12:00pm 28.4 29.6 18.2 54 6.5 SW 9 13 5 7 1011.7 1011.5 0.0
22/11:30am 27.9 29.6 18.0 55 6.3 SW 6 9 3 5 1011.6 1011.4 0.0
22/11:00am 26.6 28.5 19.0 63 4.9 SSE 7 9 4 5 1011.5 1011.3 0.0
22/10:30am 26.3 28.4 18.9 63 4.7 SSE 6 7 3 4 1011.6 1011.4 0.0
22/10:00am 27.2 29.9 19.5 62 5.0 SE 4 6 2 3 1011.5 1011.3 0.0
22/09:30am 26.2 29.4 19.8 68 4.2 N 2 7 1 4 1011.4 1011.2 0.0
22/09:00am 23.4 25.1 18.1 72 3.3 N 6 7 3 4 1011.3 1011.1 0.0
22/08:30am 24.4 26.1 18.6 70 3.7 NNE 7 9 4 5 1011.2 1011.0 0.0
22/08:00am 23.1 24.6 18.0 73 3.2 NNE 7 13 4 7 1010.8 1010.6 0.0
22/07:30am 21.6 22.0 17.2 76 2.7 ENE 11 13 6 7 1010.4 1010.2 0.0
22/07:00am 20.0 20.9 16.6 81 2.1 ENE 7 9 4 5 1010.6 1010.4 0.0
22/06:30am 20.7 20.5 16.7 78 2.4 ENE 13 17 7 9 1010.5 1010.3 0.0
22/06:00am 19.9 21.9 17.9 88 1.2 NE 4 7 2 4 1010.5 1010.3 0.0
22/05:30am 20.0 20.8 18.1 89 1.2 NE 11 15 6 8 1010.4 1010.2 0.0
22/05:00am 19.8 19.5 18.3 91 0.9 NE 17 22 9 12 1010.2 1010.0 0.0
22/04:30am 18.1 18.5 18.1 100 0.0 ENE 13 19 7 10 1010.4 1010.2 0.0
22/04:00am 17.6 18.5 17.6 100 0.0 ENE 9 11 5 6 1010.5 1010.3 0.0
22/03:30am 17.5 18.0 17.5 100 0.0 E 11 13 6 7 1010.9 1010.7 0.0
22/03:00am 16.6 16.7 16.6 100 0.0 E 11 13 6 7 1011.2 1011.0 0.0
22/02:30am 16.1 16.0 16.1 100 0.0 ESE 11 11 6 6 1011.5 1011.3 0.0
22/02:00am 16.1 16.4 16.1 100 0.0 ESE 9 11 5 6 1011.9 1011.7 0.0
22/01:30am 16.7 17.3 16.7 100 0.0 ESE 9 11 5 6 1012.2 1012.0 0.0
22/01:00am 16.5 17.0 16.5 100 0.0 SE 9 11 5 6 1012.7 1012.5 0.0
22/12:30am 17.1 16.7 17.1 100 0.0 ESE 15 17 8 9 1012.9 1012.7 0.0
22/12:00am 17.6 16.4 17.6 100 0.0 SE 20 24 11 13 1012.9 1012.7 0.0
 
Date/Time
CDT
Temp
°C
App
Temp
°C
Dew
Point
°C
Rel
Hum
%
Delta-T
°C
Wind Press
QNH
hPa
Press
MSL
hPa
Rain since
9am
mm
Dir  Spd
km/h
Gust
km/h
Spd
kts
Gust
kts
21/11:30pm 17.8 16.3 17.8 100 0.0 SE 22 26 12 14 1013.1 1012.9 0.0
21/11:00pm 18.1 16.4 18.1 100 0.0 SSE 24 30 13 16 1013.1 1012.9 0.0
21/10:30pm 18.1 16.4 18.1 100 0.0 SSE 24 28 13 15 1013.2 1013.0 0.0
21/10:00pm 18.0 16.6 18.0 100 0.0 SSE 22 26 12 14 1013.2 1013.0 0.0
21/09:30pm 18.0 17.0 18.0 100 0.0 SSE 20 24 11 13 1013.2 1013.0 0.0
21/09:00pm 18.4 17.2 18.4 100 0.0 SSE 22 28 12 15 1013.1 1012.9 0.0
21/08:30pm 19.0 18.1 19.0 100 0.0 SSE 22 26 12 14 1013.1 1012.9 0.0
21/08:00pm 19.6 19.5 19.6 100 0.0 SSE 19 22 10 12 1013.1 1012.9 0.0
21/07:30pm 20.4 20.6 20.2 99 0.1 SSE 19 22 10 12 1013.1 1012.9 0.0
21/07:00pm 21.4 22.1 20.4 94 0.6 SSE 17 24 9 13 1012.9 1012.7 0.0
21/06:30pm 21.6 21.8 20.2 92 0.9 SSE 19 24 10 13 1012.9 1012.7 0.0
21/06:00pm 22.0 22.3 20.3 90 1.1 SSE 19 22 10 12 1013.1 1012.9 0.0
21/05:30pm 22.2 22.4 20.5 90 1.1 SSE 20 24 11 13 1013.1 1012.9 0.0
21/05:00pm 22.3 22.4 20.4 89 1.2 SSE 20 26 11 14 1013.3 1013.1 0.0
21/04:30pm 21.9 21.4 20.0 89 1.2 S 22 26 12 14 1013.5 1013.3 0.0
21/04:00pm 23.6 23.5 20.7 84 1.9 S 22 28 12 15 1013.6 1013.4 0.0
21/03:30pm 22.6 22.7 20.3 87 1.5 S 20 26 11 14 1013.6 1013.4 0.0
21/03:00pm 22.9 22.9 20.2 85 1.7 SSE 20 24 11 13 1013.6 1013.4 0.0
21/02:30pm 22.8 23.0 20.5 87 1.5 SSE 20 26 11 14 1013.5 1013.3 0.0
21/02:00pm 22.3 21.7 20.4 89 1.2 SSE 24 30 13 16 1013.8 1013.6 0.0
21/01:30pm 22.2 22.0 20.5 90 1.1 S 22 28 12 15 1014.1 1013.9 0.0
21/01:00pm 22.4 22.8 20.9 91 1.0 SSE 20 26 11 14 1014.4 1014.2 0.0
21/12:30pm 22.0 21.8 20.6 92 0.9 SSE 22 28 12 15 1014.5 1014.3 0.0
21/12:00pm 21.1 20.8 20.4 96 0.5 SSE 22 28 12 15 1014.6 1014.4 0.0
21/11:30am 21.2 21.5 20.5 96 0.5 SSE 19 24 10 13 1014.8 1014.6 0.0
21/11:00am 21.2 21.5 20.5 96 0.5 S 19 26 10 14 1015.3 1015.1 0.0
21/10:30am 21.5 22.3 20.7 95 0.5 SSE 17 19 9 10 1015.5 1015.4 0.0
21/10:00am 21.0 21.1 20.3 96 0.5 SE 20 24 11 13 1015.2 1015.0 0.0
21/09:30am 20.4 20.7 20.4 100 0.0 SE 19 22 10 12 1015.4 1015.3 0.0
21/09:00am 19.6 19.5 19.6 100 0.0 SE 19 24 10 13 1015.3 1015.1 0.0
21/08:30am 19.0 19.8 19.0 100 0.0 SE 13 17 7 9 1015.7 1015.6 0.0
21/08:00am 18.1 18.9 18.1 100 0.0 S 11 13 6 7 1015.9 1015.8 0.0
21/07:30am 17.1 17.8 17.1 100 0.0 SSE 9 11 5 6 1015.8 1015.7 0.0
21/07:00am 16.4 17.2 16.4 100 0.0 SSE 7 11 4 6 1015.3 1015.1 0.0
21/06:30am 15.5 16.2 15.5 100 0.0 SE 6 9 3 5 1015.1 1014.9 0.0
21/06:00am 16.3 16.3 16.3 100 0.0 ESE 11 13 6 7 1014.7 1014.5 0.0
21/05:30am 16.3 16.7 16.3 100 0.0 ESE 9 9 5 5 1014.7 1014.5 0.0
21/05:00am 16.7 17.3 16.7 100 0.0 ESE 9 15 5 8 1014.8 1014.6 0.0
21/04:30am 16.2 16.6 16.2 100 0.0 E 9 11 5 6 1014.8 1014.6 0.0
21/04:00am 16.9 16.8 16.9 100 0.0 ESE 13 19 7 10 1015.1 1014.9 0.0
21/03:30am 16.9 16.8 16.9 100 0.0 ESE 13 19 7 10 1015.6 1015.5 0.0
21/03:00am 16.8 17.4 16.8 100 0.0 E 9 11 5 6 1015.9 1015.8 0.0
21/02:30am 16.8 17.0 16.8 100 0.0 ESE 11 17 6 9 1016.0 1015.9 0.0
21/02:00am 17.1 14.6 17.1 100 0.0 SE 26 32 14 17 1015.6 1015.5 0.0
21/01:30am 16.5 14.9 16.5 100 0.0 SE 20 24 11 13 1016.1 1016.0 0.0
21/01:00am 16.7 15.2 16.7 100 0.0 SE 20 24 11 13 1016.8 1016.7 0.0
21/12:30am 16.6 15.2 16.6 100 0.0 SE 19 24 10 13 1017.2 1017.1 0.0
21/12:00am 16.8 15.9 16.8 100 0.0 SE 17 22 9 12 1017.7 1017.6 0.0
 
Date/Time
CDT
Temp
°C
App
Temp
°C
Dew
Point
°C
Rel
Hum
%
Delta-T
°C
Wind Press
QNH
hPa
Press
MSL
hPa
Rain since
9am
mm
Dir  Spd
km/h
Gust
km/h
Spd
kts
Gust
kts
20/11:30pm 16.7 15.4 16.7 100 0.0 SE 19 24 10 13 1018.1 1018.0 0.0
20/11:00pm 16.8 15.5 16.8 100 0.0 SE 19 24 10 13 1018.5 1018.4 0.0
20/10:30pm 16.9 15.5 16.9 100 0.0 SSE 20 24 11 13 1018.7 1018.6 0.0
20/10:00pm 17.1 15.7 17.1 100 0.0 SE 20 26 11 14 1018.6 1018.5 0.0
20/09:30pm 17.3 16.0 17.3 100 0.0 SE 20 26 11 14 1018.6 1018.5 0.0
20/09:00pm 17.3 16.0 17.3 100 0.0 SSE 20 24 11 13 1018.9 1018.8 0.0
20/08:30pm 17.6 16.4 17.6 100 0.0 SE 20 26 11 14 1018.6 1018.5 0.0
20/08:00pm 18.1 16.7 17.9 99 0.1 SE 22 28 12 15 1018.3 1018.2 0.0
20/07:30pm 19.2 17.4 17.9 92 0.8 SSE 24 30 13 16 1018.2 1018.1 0.0
20/07:00pm 19.4 17.2 17.9 91 0.9 SSE 26 32 14 17 1018.2 1018.1 0.0
20/06:30pm 20.3 18.6 18.1 87 1.4 SSE 24 32 13 17 1017.9 1017.8 0.0
20/06:00pm 20.8 19.1 18.0 84 1.7 SSE 24 32 13 17 1018.1 1018.0 0.0
20/05:30pm 20.9 18.9 17.5 81 2.1 SSE 24 32 13 17 1018.2 1018.1 0.0
20/05:00pm 21.4 19.7 18.2 82 2.0 SSE 24 30 13 16 1018.5 1018.4 0.0
20/04:30pm 22.4 20.5 18.6 79 2.4 SSE 26 33 14 18 1018.3 1018.2 0.0
20/04:00pm 21.3 19.6 18.1 82 2.0 S 24 33 13 18 1018.5 1018.4 0.0
20/03:30pm 21.5 19.8 18.1 81 2.1 SSE 24 32 13 17 1018.6 1018.5 0.0
20/03:00pm 21.5 19.9 18.3 82 2.0 S 24 32 13 17 1018.9 1018.8 0.0
20/02:30pm 20.9 18.9 18.3 85 1.6 S 26 30 14 16 1019.3 1019.2 0.0
20/02:00pm 21.3 19.8 17.7 80 2.2 S 22 30 12 16 1019.6 1019.5 0.0
20/01:30pm 22.4 21.2 18.4 78 2.5 S 22 30 12 16 1019.8 1019.7 0.0
20/01:00pm 22.0 20.4 18.4 80 2.3 SSE 24 32 13 17 1019.9 1019.8 0.0
20/12:30pm 21.5 20.0 17.7 79 2.3 SSE 22 30 12 16 1020.0 1019.9 0.0
20/12:00pm 20.5 18.8 17.3 82 2.0 S 22 30 12 16 1020.4 1020.3 0.0
20/11:30am 21.1 19.5 17.5 80 2.2 SSE 22 28 12 15 1020.5 1020.4 0.0
20/11:00am 21.6 20.5 17.8 79 2.4 SSE 20 30 11 16 1020.3 1020.2 0.0
20/10:30am 20.6 19.6 18.0 85 1.6 SSE 20 26 11 14 1020.3 1020.2 0.0
20/10:00am 19.6 18.2 17.0 85 1.6 SSE 20 26 11 14 1020.6 1020.5 0.0
20/09:30am 19.4 18.3 17.7 90 1.0 SE 20 26 11 14 1020.7 1020.6 0.0
20/09:00am 18.5 17.4 17.3 93 0.7 SE 19 24 10 13 1020.9 1020.8 0.0
20/08:30am 18.0 17.0 17.5 97 0.3 SE 19 22 10 12 1020.8 1020.7 0.0
20/08:00am 17.3 17.0 17.3 100 0.0 SE 15 19 8 10 1020.8 1020.7 0.0
20/07:30am 16.3 15.2 16.3 100 0.0 SE 17 20 9 11 1020.7 1020.6 0.0

Other Formats:

Comma delimited format used in spreadsheet applications
http://www.bom.gov.au/fwo/IDS60801/IDS60801.95649.axf

JavaScript Object Notation format (JSON) in row-major order
http://www.bom.gov.au/fwo/IDS60801/IDS60801.95649.json